createdAt,value
2019-02-15T00:00:18.109Z,102639.56
2019-02-15T00:02:47.682Z,102639.84
2019-02-15T00:05:17.043Z,102639.64
2019-02-15T00:07:46.281Z,102641.34
2019-02-15T00:10:15.557Z,102633.77
2019-02-15T00:12:44.800Z,102639.30
2019-02-15T00:15:14.044Z,102636.96
2019-02-15T00:17:50.880Z,102636.75
2019-02-15T00:20:24.701Z,102631.80
2019-02-15T00:22:53.950Z,102628.69
2019-02-15T00:25:23.169Z,102628.16
2019-02-15T00:27:52.417Z,102625.05
2019-02-15T00:30:21.644Z,102619.18
2019-02-15T00:32:51.874Z,102628.73
2019-02-15T00:35:21.219Z,102620.28
2019-02-15T00:37:51.449Z,102626.30
2019-02-15T00:40:20.671Z,102631.32
2019-02-15T00:42:49.943Z,102628.88
2019-02-15T00:45:20.810Z,102633.77
2019-02-15T00:48:00.433Z,102630.13
2019-02-15T00:50:36.992Z,102633.45
2019-02-15T00:53:16.922Z,102626.91
2019-02-15T00:56:04.069Z,102636.34
2019-02-15T00:58:40.703Z,102634.83
2019-02-15T01:01:28.018Z,102637.34
2019-02-15T01:04:11.117Z,102646.88
2019-02-15T01:06:58.424Z,102639.03
2019-02-15T01:09:44.287Z,102647.27
2019-02-15T01:12:15.198Z,102644.02
2019-02-15T01:14:44.396Z,102646.42
2019-02-15T01:17:13.657Z,102644.09
2019-02-15T01:19:42.878Z,102646.59
2019-02-15T01:22:12.165Z,102643.23
2019-02-15T01:24:41.355Z,102644.72
2019-02-15T01:27:12.683Z,102643.86
2019-02-15T01:29:43.606Z,102635.91
2019-02-15T01:32:29.188Z,102636.61
2019-02-15T01:35:05.815Z,102635.86
2019-02-15T01:37:48.651Z,102634.73
2019-02-15T01:40:25.492Z,102636.70
2019-02-15T01:42:59.562Z,102634.36
2019-02-15T01:45:30.413Z,102635.06
2019-02-15T01:47:59.687Z,102641.45
2019-02-15T01:50:28.900Z,102638.41
2019-02-15T01:52:58.169Z,102634.77
2019-02-15T01:55:27.394Z,102635.95
2019-02-15T01:57:56.647Z,102626.17
2019-02-15T02:00:27.566Z,102629.06
2019-02-15T02:02:56.811Z,102633.68
2019-02-15T02:05:26.043Z,102631.73
2019-02-15T02:07:55.355Z,102628.36
2019-02-15T02:10:24.560Z,102626.45
2019-02-15T02:12:53.895Z,102628.81
2019-02-15T02:15:23.104Z,102624.56
2019-02-15T02:17:52.359Z,102628.91
2019-02-15T02:20:21.571Z,102625.55
2019-02-15T02:22:50.799Z,102623.48
2019-02-15T02:25:20.074Z,102622.45
2019-02-15T02:27:49.300Z,102626.69
2019-02-15T02:30:18.526Z,102623.54
2019-02-15T02:32:47.891Z,102623.04
2019-02-15T02:35:17.170Z,102624.73
2019-02-15T02:37:46.506Z,102625.50
2019-02-15T02:40:15.696Z,102623.04
2019-02-15T02:42:44.944Z,102621.59
2019-02-15T02:45:14.175Z,102619.89
2019-02-15T02:47:43.417Z,102623.81
2019-02-15T02:50:12.645Z,102618.59
2019-02-15T02:52:41.955Z,102619.39
2019-02-15T02:55:11.166Z,102621.59
2019-02-15T02:57:40.425Z,102621.09
2019-02-15T03:00:09.735Z,102616.67
2019-02-15T03:02:39.069Z,102611.72
2019-02-15T03:05:08.280Z,102617.83
2019-02-15T03:07:37.488Z,102619.67
2019-02-15T03:10:07.320Z,102609.72
2019-02-15T03:12:37.232Z,102612.86
2019-02-15T03:15:07.397Z,102616.25
2019-02-15T03:17:36.636Z,102618.86
2019-02-15T03:20:07.021Z,102607.11
2019-02-15T03:22:36.352Z,102612.75
2019-02-15T03:25:05.518Z,102612.38
2019-02-15T03:27:34.750Z,102616.69
2019-02-15T03:30:06.070Z,102613.84
2019-02-15T03:32:35.289Z,102615.81
2019-02-15T03:35:07.226Z,102611.67
2019-02-15T03:37:43.481Z,102607.80
2019-02-15T03:40:16.916Z,102605.46
2019-02-15T03:42:46.110Z,102612.27
2019-02-15T03:45:17.137Z,102610.73
2019-02-15T03:47:46.356Z,102612.70
2019-02-15T03:50:15.563Z,102610.78
2019-02-15T03:52:44.836Z,102607.91
2019-02-15T03:55:14.057Z,102603.77
2019-02-15T03:57:43.403Z,102603.53
2019-02-15T04:00:13.447Z,102607.72
2019-02-15T04:02:42.670Z,102601.34
2019-02-15T04:05:12.025Z,102603.58
2019-02-15T04:07:41.235Z,102599.94
2019-02-15T04:10:10.449Z,102595.52
2019-02-15T04:12:39.827Z,102593.30
2019-02-15T04:15:09.073Z,102592.91
2019-02-15T04:17:38.288Z,102594.22
2019-02-15T04:20:09.054Z,102597.09
2019-02-15T04:22:38.324Z,102599.98
2019-02-15T04:25:07.556Z,102598.44
2019-02-15T04:27:36.752Z,102604.44
2019-02-15T04:30:10.703Z,102602.63
2019-02-15T04:32:39.935Z,102600.13
2019-02-15T04:35:09.947Z,102598.83
2019-02-15T04:37:39.137Z,102589.31
2019-02-15T04:40:09.822Z,102595.30
2019-02-15T04:42:39.173Z,102594.91
2019-02-15T04:45:09.016Z,102590.61
2019-02-15T04:47:38.220Z,102590.08
2019-02-15T04:50:08.966Z,102596.88
2019-02-15T04:52:38.153Z,102598.17
2019-02-15T04:55:07.721Z,102594.69
2019-02-15T04:57:36.892Z,102586.97
2019-02-15T05:00:07.986Z,102584.75
2019-02-15T05:02:37.207Z,102583.97
2019-02-15T05:05:07.220Z,102583.44
2019-02-15T05:07:36.441Z,102579.52
2019-02-15T05:10:06.847Z,102585.13
2019-02-15T05:12:36.194Z,102580.17
2019-02-15T05:15:07.415Z,102583.81
2019-02-15T05:17:36.644Z,102579.91
2019-02-15T05:20:07.494Z,102580.02
2019-02-15T05:22:36.728Z,102576.22
2019-02-15T05:25:05.969Z,102578.44
2019-02-15T05:27:35.223Z,102578.83
2019-02-15T05:30:05.944Z,102576.72
2019-02-15T05:32:35.123Z,102577.52
2019-02-15T05:35:05.135Z,102571.66
2019-02-15T05:37:34.368Z,102568.16
2019-02-15T05:40:04.737Z,102565.78
2019-02-15T05:42:33.997Z,102566.81
2019-02-15T05:45:04.932Z,102565.13
2019-02-15T05:47:34.105Z,102568.73
2019-02-15T05:50:04.926Z,102562.09
2019-02-15T05:52:34.127Z,102562.09
2019-02-15T05:55:05.297Z,102565.95
2019-02-15T05:57:34.552Z,102570.80
2019-02-15T06:00:05.194Z,102578.89
2019-02-15T06:02:34.571Z,102573.51
2019-02-15T06:05:06.212Z,102570.85
2019-02-15T06:07:35.429Z,102569.77
2019-02-15T06:10:07.225Z,102572.50
2019-02-15T06:12:36.496Z,102570.53
2019-02-15T06:15:14.764Z,102570.53
2019-02-15T06:17:37.200Z,102568.69
2019-02-15T06:20:07.485Z,102570.00
2019-02-15T06:22:36.779Z,102571.84
2019-02-15T06:25:06.023Z,102567.11
2019-02-15T06:27:35.216Z,102568.95
2019-02-15T06:30:05.700Z,102566.84
2019-02-15T06:32:34.975Z,102566.95
2019-02-15T06:35:04.532Z,102579.84
2019-02-15T06:37:33.720Z,102580.61
2019-02-15T06:40:02.991Z,102581.14
2019-02-15T06:42:32.469Z,102591.59
2019-02-15T06:45:01.721Z,102584.25
2019-02-15T06:47:30.921Z,102580.86
2019-02-15T06:50:00.408Z,102588.00
2019-02-15T06:52:29.840Z,102594.26
2019-02-15T06:54:59.047Z,102598.17
2019-02-15T06:57:28.511Z,102595.40
2019-02-15T07:00:14.732Z,102597.97
2019-02-15T07:02:45.627Z,102595.72
2019-02-15T07:05:16.481Z,102604.70
2019-02-15T07:07:45.731Z,102598.92
2019-02-15T07:10:14.934Z,102608.94
2019-02-15T07:12:44.154Z,102603.27
2019-02-15T07:15:13.379Z,102601.47
2019-02-15T07:17:43.614Z,102607.29
2019-02-15T07:20:12.866Z,102610.59
2019-02-15T07:22:42.511Z,102613.67
2019-02-15T07:25:12.542Z,102610.83
2019-02-15T07:27:41.744Z,102609.17
2019-02-15T07:30:12.916Z,102607.52
2019-02-15T07:32:42.129Z,102609.93
2019-02-15T07:35:11.375Z,102617.04
2019-02-15T07:37:40.610Z,102613.36
2019-02-15T07:40:10.387Z,102607.48
2019-02-15T07:42:39.637Z,102611.41
2019-02-15T07:45:10.830Z,102605.91
2019-02-15T07:47:40.209Z,102602.35
2019-02-15T07:50:14.085Z,102609.75
2019-02-15T07:52:43.275Z,102614.05
2019-02-15T07:55:12.812Z,102613.59
2019-02-15T07:57:42.047Z,102612.77
2019-02-15T08:00:13.666Z,102613.20
2019-02-15T08:02:42.920Z,102611.91
2019-02-15T08:05:12.119Z,102611.84
2019-02-15T08:07:41.365Z,102611.45
2019-02-15T08:10:11.387Z,102615.41
2019-02-15T08:12:40.882Z,102603.83
2019-02-15T08:15:10.976Z,102607.47
2019-02-15T08:17:40.229Z,102603.94
2019-02-15T08:20:11.065Z,102608.66
2019-02-15T08:22:40.305Z,102593.50
2019-02-15T08:25:09.767Z,102605.61
2019-02-15T08:27:39.009Z,102610.94
2019-02-15T08:30:11.719Z,102599.38
2019-02-15T08:32:44.041Z,102604.39
2019-02-15T08:35:13.210Z,102607.71
2019-02-15T08:37:42.508Z,102607.14
2019-02-15T08:40:11.711Z,102604.77
2019-02-15T08:42:40.977Z,102600.64
2019-02-15T08:45:14.803Z,102601.80
2019-02-15T08:47:44.319Z,102601.43
2019-02-15T08:50:13.587Z,102599.44
2019-02-15T08:52:42.928Z,102607.16
2019-02-15T08:55:12.429Z,102604.23
2019-02-15T08:57:41.695Z,102599.19
2019-02-15T09:00:13.033Z,102605.98
2019-02-15T09:02:42.338Z,102606.20
2019-02-15T09:05:12.488Z,102612.47
2019-02-15T09:07:41.777Z,102607.41
2019-02-15T09:10:12.614Z,102602.65
2019-02-15T09:12:42.836Z,102599.80
2019-02-15T09:15:18.157Z,102597.75
2019-02-15T09:17:47.410Z,102602.29
2019-02-15T09:20:16.624Z,102610.81
2019-02-15T09:22:45.816Z,102603.08
2019-02-15T09:25:15.038Z,102608.84
2019-02-15T09:28:02.199Z,102602.26
2019-02-15T09:30:31.410Z,102608.02
2019-02-15T09:33:00.669Z,102606.27
2019-02-15T09:35:29.879Z,102600.55
2019-02-15T09:37:59.138Z,102601.95
2019-02-15T09:40:28.411Z,102594.10
2019-02-15T09:42:57.610Z,102595.55
2019-02-15T09:45:26.891Z,102591.62
2019-02-15T09:47:56.244Z,102594.45
2019-02-15T09:50:25.442Z,102594.11
2019-02-15T09:52:54.709Z,102593.16
2019-02-15T09:55:23.927Z,102590.64
2019-02-15T09:57:53.243Z,102591.63
2019-02-15T10:00:22.475Z,102582.88
2019-02-15T10:02:51.723Z,102581.31
2019-02-15T10:05:21.085Z,102580.08
2019-02-15T10:07:50.311Z,102581.93
2019-02-15T10:10:19.591Z,102577.91
2019-02-15T10:12:48.794Z,102579.72
2019-02-15T10:15:18.017Z,102572.42
2019-02-15T10:17:47.269Z,102580.95
2019-02-15T10:20:16.540Z,102574.34
2019-02-15T10:22:45.837Z,102576.01
2019-02-15T10:25:15.089Z,102579.06
2019-02-15T10:27:44.323Z,102576.81
2019-02-15T10:30:13.749Z,102579.86
2019-02-15T10:32:43.040Z,102585.55
2019-02-15T10:35:12.277Z,102578.05
2019-02-15T10:37:42.070Z,102579.20
2019-02-15T10:40:11.755Z,102566.69
2019-02-15T10:42:41.015Z,102571.39
2019-02-15T10:45:12.959Z,102563.00
2019-02-15T10:47:42.162Z,102565.11
2019-02-15T10:50:11.783Z,102560.16
2019-02-15T10:52:41.009Z,102555.98
2019-02-15T10:55:10.252Z,102560.22
2019-02-15T10:57:39.510Z,102554.25
2019-02-15T11:00:13.514Z,102558.59
2019-02-15T11:02:42.947Z,102556.14
2019-02-15T11:05:12.237Z,102550.62
2019-02-15T11:07:41.528Z,102549.45
2019-02-15T11:10:10.786Z,102543.42
2019-02-15T11:12:40.408Z,102544.14
2019-02-15T11:15:15.522Z,102544.42
2019-02-15T11:17:44.730Z,102540.69
2019-02-15T11:20:18.610Z,102538.23
2019-02-15T11:22:48.086Z,102529.55
2019-02-15T11:25:17.286Z,102526.62
2019-02-15T11:27:47.137Z,102519.72
2019-02-15T11:30:16.865Z,102522.97
2019-02-15T11:32:46.119Z,102513.41
2019-02-15T11:35:15.331Z,102510.07
2019-02-15T11:37:44.848Z,102509.02
2019-02-15T11:40:15.317Z,102511.89
2019-02-15T11:42:44.522Z,102509.42
2019-02-15T11:45:14.325Z,102507.41
2019-02-15T11:47:43.533Z,102500.12
2019-02-15T11:50:13.825Z,102493.77
2019-02-15T11:52:43.083Z,102492.70
2019-02-15T11:55:12.383Z,102486.73
2019-02-15T11:57:41.647Z,102484.28
2019-02-15T12:00:18.425Z,102490.69
2019-02-15T12:02:47.450Z,102482.42
2019-02-15T12:05:16.701Z,102477.89
2019-02-15T12:07:45.945Z,102471.32
2019-02-15T12:10:15.287Z,102475.47
2019-02-15T12:12:44.548Z,102471.61
2019-02-15T12:15:13.746Z,102470.44
2019-02-15T12:17:43.028Z,102473.22
2019-02-15T12:20:13.770Z,102467.22
2019-02-15T12:22:43.036Z,102467.37
2019-02-15T12:25:12.279Z,102468.37
2019-02-15T12:27:41.530Z,102462.17
2019-02-15T12:30:12.712Z,102464.08
2019-02-15T12:32:41.968Z,102464.64
2019-02-15T12:35:11.567Z,102459.41
2019-02-15T12:37:40.804Z,102461.76
2019-02-15T12:40:11.142Z,102454.88
2019-02-15T12:42:40.425Z,102448.30
2019-02-15T12:45:11.581Z,102442.66
2019-02-15T12:47:40.852Z,102444.53
2019-02-15T12:50:13.263Z,102436.16
2019-02-15T12:52:42.525Z,102435.73
2019-02-15T12:55:11.811Z,102428.20
2019-02-15T12:57:41.067Z,102429.72
2019-02-15T13:00:17.204Z,102434.20
2019-02-15T13:02:46.469Z,102424.92
2019-02-15T13:05:15.669Z,102420.08
2019-02-15T13:07:44.936Z,102416.55
2019-02-15T13:10:18.574Z,102413.39
2019-02-15T13:12:47.998Z,102406.77
2019-02-15T13:15:17.199Z,102400.12
2019-02-15T13:17:46.516Z,102393.50
2019-02-15T13:20:15.741Z,102391.36
2019-02-15T13:22:45.011Z,102387.47
2019-02-15T13:25:14.251Z,102376.14
2019-02-15T13:27:44.567Z,102378.27
2019-02-15T13:30:16.509Z,102375.37
2019-02-15T13:32:45.922Z,102375.44
2019-02-15T13:35:21.022Z,102367.54
2019-02-15T13:37:50.286Z,102364.58
2019-02-15T13:40:19.634Z,102359.70
2019-02-15T13:42:49.064Z,102363.67
2019-02-15T13:45:18.285Z,102360.61
2019-02-15T13:47:47.558Z,102357.46
2019-02-15T13:50:19.075Z,102357.44
2019-02-15T13:52:48.098Z,102352.59
2019-02-15T13:55:17.300Z,102352.10
2019-02-15T13:57:46.528Z,102343.17
2019-02-15T14:00:15.730Z,102345.37
2019-02-15T14:02:45.106Z,102341.41
2019-02-15T14:05:14.358Z,102340.50
2019-02-15T14:07:43.614Z,102336.51
2019-02-15T14:10:14.825Z,102337.88
2019-02-15T14:12:44.110Z,102340.11
2019-02-15T14:15:13.334Z,102341.87
2019-02-15T14:17:45.589Z,102342.75
2019-02-15T14:20:14.080Z,102332.97
2019-02-15T14:22:43.318Z,102327.12
2019-02-15T14:25:12.756Z,102331.09
2019-02-15T14:27:42.014Z,102327.55
2019-02-15T14:30:12.578Z,102323.52
2019-02-15T14:32:41.858Z,102318.16
2019-02-15T14:35:12.088Z,102320.83
2019-02-15T14:37:41.781Z,102319.36
2019-02-15T14:40:12.071Z,102318.78
2019-02-15T14:42:41.517Z,102318.30
2019-02-15T14:45:14.558Z,102314.24
2019-02-15T14:47:43.805Z,102316.00
2019-02-15T14:50:13.086Z,102313.72
2019-02-15T14:52:42.474Z,102311.45
2019-02-15T14:55:11.751Z,102313.17
2019-02-15T14:57:41.065Z,102308.27
2019-02-15T15:00:12.833Z,102305.58
2019-02-15T15:02:42.361Z,102299.31
2019-02-15T15:05:13.362Z,102290.80
2019-02-15T15:07:43.005Z,102298.23
2019-02-15T15:10:12.255Z,102291.97
2019-02-15T15:12:41.489Z,102291.00
2019-02-15T15:15:12.769Z,102286.88
2019-02-15T15:17:42.026Z,102287.58
2019-02-15T15:20:14.871Z,102283.48
2019-02-15T15:22:44.089Z,102287.41
2019-02-15T15:25:14.578Z,102279.69
2019-02-15T15:27:43.787Z,102270.73
2019-02-15T15:30:15.300Z,102271.47
2019-02-15T15:32:44.879Z,102271.75
2019-02-15T15:35:16.445Z,102264.93
2019-02-15T15:37:46.048Z,102264.69
2019-02-15T15:40:17.078Z,102268.01
2019-02-15T15:42:46.490Z,102260.30
2019-02-15T15:45:15.795Z,102259.25
2019-02-15T15:47:45.165Z,102263.55
2019-02-15T15:50:14.528Z,102255.89
2019-02-15T15:52:43.765Z,102260.95
2019-02-15T15:55:13.825Z,102260.77
2019-02-15T15:57:43.035Z,102253.89
2019-02-15T16:00:16.146Z,102251.50
2019-02-15T16:02:45.433Z,102248.58
2019-02-15T16:05:14.644Z,102253.24
2019-02-15T16:07:44.190Z,102248.16
2019-02-15T16:10:14.699Z,102246.55
2019-02-15T16:12:43.917Z,102243.24
2019-02-15T16:15:14.210Z,102245.66
2019-02-15T16:17:57.594Z,102243.18
2019-02-15T16:20:26.877Z,102240.41
2019-02-15T16:22:56.082Z,102249.95
2019-02-15T16:25:25.405Z,102239.16
2019-02-15T16:27:54.815Z,102240.66
2019-02-15T16:30:25.337Z,102241.81
2019-02-15T16:32:54.531Z,102237.58
2019-02-15T16:35:23.964Z,102241.67
2019-02-15T16:37:53.387Z,102243.61
2019-02-15T16:40:23.588Z,102235.02
2019-02-15T16:42:52.922Z,102230.83
2019-02-15T16:45:23.488Z,102235.04
2019-02-15T16:47:52.874Z,102226.77
2019-02-15T16:50:22.263Z,102230.48
2019-02-15T16:52:51.635Z,102231.53
2019-02-15T16:55:20.820Z,102233.42
2019-02-15T16:57:50.165Z,102242.01
2019-02-15T17:00:19.363Z,102231.95
2019-02-15T17:02:48.697Z,102232.17
2019-02-15T17:05:18.109Z,102233.22
2019-02-15T17:07:47.519Z,102226.63
2019-02-15T17:10:16.855Z,102224.91
2019-02-15T17:12:46.191Z,102222.23
2019-02-15T17:15:16.104Z,102225.25
2019-02-15T17:17:45.336Z,102220.36
2019-02-15T17:20:14.774Z,102221.28
2019-02-15T17:22:44.099Z,102221.08
2019-02-15T17:25:13.304Z,102221.44
2019-02-15T17:27:42.503Z,102223.56
2019-02-15T17:30:12.218Z,102219.95
2019-02-15T17:32:41.482Z,102219.45
2019-02-15T17:35:11.687Z,102216.28
2019-02-15T17:37:40.871Z,102218.78
2019-02-15T17:40:17.380Z,102216.34
2019-02-15T17:42:46.739Z,102209.67
2019-02-15T17:45:16.025Z,102207.27
2019-02-15T17:47:45.233Z,102208.50
2019-02-15T17:50:14.460Z,102205.93
2019-02-15T17:52:43.866Z,102205.61
2019-02-15T17:55:13.210Z,102205.27
2019-02-15T17:57:42.432Z,102202.51
2019-02-15T18:00:17.154Z,102195.95
2019-02-15T18:02:46.342Z,102199.92
2019-02-15T18:05:17.340Z,102195.04
2019-02-15T18:07:49.259Z,102190.61
2019-02-15T18:10:19.003Z,102190.46
2019-02-15T18:12:48.638Z,102193.05
2019-02-15T18:15:18.217Z,102192.64
2019-02-15T18:17:47.607Z,102189.48
2019-02-15T18:20:17.963Z,102183.68
2019-02-15T18:22:48.168Z,102184.44
2019-02-15T18:25:17.486Z,102188.70
2019-02-15T18:27:47.004Z,102181.02
2019-02-15T18:30:16.960Z,102183.59
2019-02-15T18:32:46.297Z,102182.22
2019-02-15T18:35:15.512Z,102186.94
2019-02-15T18:37:44.702Z,102182.86
2019-02-15T18:40:14.069Z,102176.20
2019-02-15T18:42:43.296Z,102176.45
2019-02-15T18:45:14.461Z,102174.05
2019-02-15T18:47:43.688Z,102171.70
2019-02-15T18:50:13.090Z,102162.22
2019-02-15T18:52:42.313Z,102164.47
2019-02-15T18:55:12.309Z,102166.78
2019-02-15T18:57:41.759Z,102168.67
2019-02-15T19:00:18.132Z,102169.72
2019-02-15T19:02:51.690Z,102158.47
2019-02-15T19:05:21.018Z,102163.56
2019-02-15T19:07:50.470Z,102162.09
2019-02-15T19:10:23.821Z,102156.69
2019-02-15T19:12:53.292Z,102154.27
2019-02-15T19:15:22.507Z,102158.92
2019-02-15T19:17:52.355Z,102153.86
2019-02-15T19:20:21.599Z,102147.45
2019-02-15T19:22:50.939Z,102150.94
2019-02-15T19:25:20.933Z,102148.52
2019-02-15T19:27:50.280Z,102142.20
2019-02-15T19:30:25.966Z,102147.32
2019-02-15T19:32:55.700Z,102143.17
2019-02-15T19:35:25.068Z,102140.75
2019-02-15T19:37:54.429Z,102134.34
2019-02-15T19:40:23.631Z,102127.49
2019-02-15T19:42:56.626Z,102122.84
2019-02-15T19:45:25.886Z,102119.56
2019-02-15T19:47:55.276Z,102126.91
2019-02-15T19:50:24.480Z,102126.30
2019-02-15T19:52:53.930Z,102120.80
2019-02-15T19:55:24.388Z,102116.48
2019-02-15T19:57:53.871Z,102118.83
2019-02-15T20:00:23.067Z,102109.30
2019-02-15T20:02:52.533Z,102106.47
2019-02-15T20:05:21.728Z,102113.67
2019-02-15T20:07:51.070Z,102113.94
2019-02-15T20:10:22.173Z,102115.59
2019-02-15T20:12:51.574Z,102111.47
2019-02-15T20:15:20.954Z,102113.06
2019-02-15T20:17:50.297Z,102110.77
2019-02-15T20:20:19.513Z,102115.42
2019-02-15T20:22:48.999Z,102108.67
2019-02-15T20:25:18.581Z,102111.17
2019-02-15T20:27:48.078Z,102112.69
2019-02-15T20:30:23.879Z,102112.38
2019-02-15T20:32:53.217Z,102107.64
2019-02-15T20:35:22.435Z,102112.59
2019-02-15T20:37:51.776Z,102110.49
2019-02-15T20:40:21.115Z,102112.00
2019-02-15T20:42:50.304Z,102112.53
2019-02-15T20:45:22.648Z,102103.33
2019-02-15T20:47:51.990Z,102093.57
2019-02-15T20:50:21.639Z,102099.09
2019-02-15T20:52:50.991Z,102091.94
2019-02-15T20:55:20.384Z,102091.94
2019-02-15T20:57:50.537Z,102091.45
2019-02-15T21:00:25.617Z,102083.56
2019-02-15T21:02:54.971Z,102091.53
2019-02-15T21:08:19.196Z,102082.53
2019-02-15T21:10:54.527Z,102076.53
2019-02-15T21:13:20.736Z,102071.74
2019-02-15T21:15:50.245Z,102077.19
2019-02-15T21:18:19.720Z,102076.27
2019-02-15T21:20:50.136Z,102070.76
2019-02-15T21:23:19.383Z,102064.81
2019-02-15T21:25:48.777Z,102075.23
2019-02-15T21:28:18.161Z,102068.17
2019-02-15T21:30:48.030Z,102074.28
2019-02-15T21:33:18.149Z,102064.09
2019-02-15T21:35:47.409Z,102072.39
2019-02-15T21:38:16.748Z,102062.77
2019-02-15T21:40:46.005Z,102068.52
2019-02-15T21:43:15.378Z,102062.84
2019-02-15T21:45:44.681Z,102066.60
2019-02-15T21:48:14.022Z,102059.28
2019-02-15T21:50:43.616Z,102064.28
2019-02-15T21:53:12.927Z,102057.44
2019-02-15T21:55:42.135Z,102060.28
2019-02-15T21:58:11.890Z,102058.16
2019-02-15T22:00:41.207Z,102051.14
2019-02-15T22:03:10.487Z,102051.47
2019-02-15T22:05:39.689Z,102046.14
2019-02-15T22:08:08.939Z,102042.45
2019-02-15T22:10:38.155Z,102043.23
2019-02-15T22:13:07.428Z,102035.23
2019-02-15T22:15:36.654Z,102035.93
2019-02-15T22:18:05.930Z,102043.52
2019-02-15T22:20:35.214Z,102036.21
2019-02-15T22:23:04.445Z,102037.80
2019-02-15T22:25:33.712Z,102042.91
2019-02-15T22:28:03.047Z,102037.07
2019-02-15T22:30:32.270Z,102035.20
2019-02-15T22:33:01.543Z,102023.38
2019-02-15T22:35:30.745Z,102022.66
2019-02-15T22:38:00.012Z,102027.20
2019-02-15T22:40:35.118Z,102022.05
2019-02-15T22:43:10.077Z,102019.17
2019-02-15T22:45:39.441Z,102014.09
2019-02-15T22:48:09.045Z,102015.08
2019-02-15T22:50:38.274Z,102006.97
2019-02-15T22:53:07.669Z,102006.72
2019-02-15T22:55:36.867Z,102004.27
2019-02-15T22:58:06.179Z,101994.74
2019-02-15T23:00:48.135Z,101999.78
2019-02-15T23:03:19.334Z,101993.46
2019-02-15T23:05:48.572Z,101992.00
2019-02-15T23:08:17.908Z,101991.63
2019-02-15T23:10:47.098Z,101989.67
2019-02-15T23:13:17.429Z,101989.67
2019-02-15T23:15:46.800Z,101990.18
2019-02-15T23:18:16.405Z,101984.92
2019-02-15T23:20:45.774Z,101988.09
2019-02-15T23:23:15.102Z,101981.97
2019-02-15T23:25:44.442Z,101988.35
2019-02-15T23:28:13.809Z,101984.59
2019-02-15T23:30:43.046Z,101990.69
2019-02-15T23:33:12.242Z,101986.23
2019-02-15T23:35:41.502Z,101978.75
2019-02-15T23:38:10.743Z,101975.58
2019-02-15T23:40:40.003Z,101981.63
2019-02-15T23:43:09.220Z,101977.06
2019-02-15T23:45:38.474Z,101971.63
2019-02-15T23:48:07.797Z,101967.53
2019-02-15T23:50:36.994Z,101965.56
2019-02-15T23:53:06.660Z,101970.52
2019-02-15T23:55:35.896Z,101967.16
2019-02-15T23:58:05.168Z,101966.31
